sensor_id;sensor_type;location;lat;lon;timestamp;temperature;humidity
26164;DHT22;13914;48.178;11.716;2024-03-23T00:51:13;11.60;6.80
26164;DHT22;13914;48.178;11.716;2024-03-23T00:56:06;11.60;6.90
26164;DHT22;13914;48.178;11.716;2024-03-23T00:58:31;11.50;6.90
26164;DHT22;13914;48.178;11.716;2024-03-23T01:00:57;11.50;6.90
26164;DHT22;13914;48.178;11.716;2024-03-23T01:03:23;11.40;6.90
26164;DHT22;13914;48.178;11.716;2024-03-23T01:05:48;11.40;6.90
26164;DHT22;13914;48.178;11.716;2024-03-23T01:08:14;11.40;6.90
26164;DHT22;13914;48.178;11.716;2024-03-23T01:10:40;11.30;6.90
26164;DHT22;13914;48.178;11.716;2024-03-23T01:13:05;11.30;7.00
26164;DHT22;13914;48.178;11.716;2024-03-23T01:15:31;11.30;7.00
26164;DHT22;13914;48.178;11.716;2024-03-23T01:17:57;11.30;7.00
26164;DHT22;13914;48.178;11.716;2024-03-23T01:20:23;11.20;7.00
26164;DHT22;13914;48.178;11.716;2024-03-23T01:22:48;11.20;7.00
26164;DHT22;13914;48.178;11.716;2024-03-23T01:25:14;11.10;6.90
26164;DHT22;13914;48.178;11.716;2024-03-23T01:27:39;11.10;7.00
26164;DHT22;13914;48.178;11.716;2024-03-23T01:30:05;11.10;7.00
26164;DHT22;13914;48.178;11.716;2024-03-23T01:32:32;11.10;7.00
26164;DHT22;13914;48.178;11.716;2024-03-23T01:34:58;11.00;7.00
26164;DHT22;13914;48.178;11.716;2024-03-23T01:37:24;11.00;7.00
26164;DHT22;13914;48.178;11.716;2024-03-23T01:39:49;11.00;7.00
26164;DHT22;13914;48.178;11.716;2024-03-23T01:42:15;11.00;7.00
26164;DHT22;13914;48.178;11.716;2024-03-23T01:44:41;10.90;7.00
26164;DHT22;13914;48.178;11.716;2024-03-23T01:47:06;10.90;7.00
26164;DHT22;13914;48.178;11.716;2024-03-23T01:49:32;10.80;7.60
26164;DHT22;13914;48.178;11.716;2024-03-23T01:51:58;10.80;7.00
26164;DHT22;13914;48.178;11.716;2024-03-23T01:54:25;10.80;7.00
26164;DHT22;13914;48.178;11.716;2024-03-23T01:56:50;10.70;6.90
26164;DHT22;13914;48.178;11.716;2024-03-23T01:59:16;10.70;7.00
26164;DHT22;13914;48.178;11.716;2024-03-23T02:01:41;10.70;7.00
26164;DHT22;13914;48.178;11.716;2024-03-23T02:04:07;10.60;7.00
26164;DHT22;13914;48.178;11.716;2024-03-23T02:06:35;10.60;7.00
26164;DHT22;13914;48.178;11.716;2024-03-23T02:09:00;10.60;7.00
26164;DHT22;13914;48.178;11.716;2024-03-23T02:11:26;10.50;6.90
26164;DHT22;13914;48.178;11.716;2024-03-23T02:13:52;10.50;7.00
26164;DHT22;13914;48.178;11.716;2024-03-23T02:16:18;10.50;7.10
26164;DHT22;13914;48.178;11.716;2024-03-23T02:18:44;10.50;7.00
26164;DHT22;13914;48.178;11.716;2024-03-23T02:21:09;10.40;7.00
26164;DHT22;13914;48.178;11.716;2024-03-23T02:23:35;10.40;7.00
26164;DHT22;13914;48.178;11.716;2024-03-23T02:26:01;10.40;7.10
26164;DHT22;13914;48.178;11.716;2024-03-23T02:28:26;10.40;7.10
26164;DHT22;13914;48.178;11.716;2024-03-23T02:30:52;10.30;7.10
26164;DHT22;13914;48.178;11.716;2024-03-23T02:33:18;10.30;7.10
26164;DHT22;13914;48.178;11.716;2024-03-23T02:35:44;10.30;7.10
26164;DHT22;13914;48.178;11.716;2024-03-23T02:38:10;10.30;7.10
26164;DHT22;13914;48.178;11.716;2024-03-23T02:40:36;10.20;7.10
26164;DHT22;13914;48.178;11.716;2024-03-23T02:43:02;10.20;7.10
26164;DHT22;13914;48.178;11.716;2024-03-23T02:45:28;10.20;7.10
26164;DHT22;13914;48.178;11.716;2024-03-23T02:47:54;10.20;7.10
26164;DHT22;13914;48.178;11.716;2024-03-23T02:50:20;10.10;7.10
26164;DHT22;13914;48.178;11.716;2024-03-23T02:52:46;10.10;7.20
26164;DHT22;13914;48.178;11.716;2024-03-23T02:55:12;10.20;7.20
26164;DHT22;13914;48.178;11.716;2024-03-23T02:57:38;10.10;7.20
26164;DHT22;13914;48.178;11.716;2024-03-23T03:00:04;10.10;7.20
26164;DHT22;13914;48.178;11.716;2024-03-23T03:02:31;10.00;7.10
26164;DHT22;13914;48.178;11.716;2024-03-23T03:04:57;10.00;7.10
26164;DHT22;13914;48.178;11.716;2024-03-23T03:07:23;10.00;7.20
26164;DHT22;13914;48.178;11.716;2024-03-23T03:09:48;10.00;7.20
26164;DHT22;13914;48.178;11.716;2024-03-23T03:12:14;10.00;7.20
26164;DHT22;13914;48.178;11.716;2024-03-23T03:14:40;9.90;7.20
26164;DHT22;13914;48.178;11.716;2024-03-23T03:17:05;9.90;7.20
26164;DHT22;13914;48.178;11.716;2024-03-23T03:19:31;9.90;7.20
26164;DHT22;13914;48.178;11.716;2024-03-23T03:21:57;9.90;7.20
26164;DHT22;13914;48.178;11.716;2024-03-23T03:24:23;9.90;7.30
26164;DHT22;13914;48.178;11.716;2024-03-23T03:26:49;9.80;7.20
26164;DHT22;13914;48.178;11.716;2024-03-23T03:29:15;9.80;7.20
26164;DHT22;13914;48.178;11.716;2024-03-23T03:31:41;9.80;7.20
26164;DHT22;13914;48.178;11.716;2024-03-23T03:34:08;9.80;7.30
26164;DHT22;13914;48.178;11.716;2024-03-23T03:36:34;9.80;7.20
26164;DHT22;13914;48.178;11.716;2024-03-23T03:39:00;9.80;7.30
26164;DHT22;13914;48.178;11.716;2024-03-23T03:41:25;9.80;7.30
26164;DHT22;13914;48.178;11.716;2024-03-23T03:43:51;9.70;7.90
26164;DHT22;13914;48.178;11.716;2024-03-23T03:46:17;9.70;7.20
26164;DHT22;13914;48.178;11.716;2024-03-23T03:48:42;9.70;7.30
26164;DHT22;13914;48.178;11.716;2024-03-23T03:51:10;9.70;7.30
26164;DHT22;13914;48.178;11.716;2024-03-23T03:53:36;9.70;7.30
26164;DHT22;13914;48.178;11.716;2024-03-23T03:56:02;9.70;7.30
26164;DHT22;13914;48.178;11.716;2024-03-23T03:58:28;9.60;7.30
26164;DHT22;13914;48.178;11.716;2024-03-23T04:00:53;9.60;7.30
26164;DHT22;13914;48.178;11.716;2024-03-23T04:03:19;9.60;7.30
26164;DHT22;13914;48.178;11.716;2024-03-23T04:05:52;9.60;7.30
26164;DHT22;13914;48.178;11.716;2024-03-23T04:08:18;9.60;7.40
26164;DHT22;13914;48.178;11.716;2024-03-23T04:10:44;9.60;7.40
26164;DHT22;13914;48.178;11.716;2024-03-23T04:13:11;9.50;7.30
26164;DHT22;13914;48.178;11.716;2024-03-23T04:15:37;9.50;7.30
26164;DHT22;13914;48.178;11.716;2024-03-23T04:18:03;9.50;7.30
26164;DHT22;13914;48.178;11.716;2024-03-23T04:20:28;9.50;7.40
26164;DHT22;13914;48.178;11.716;2024-03-23T04:22:54;9.50;7.40
26164;DHT22;13914;48.178;11.716;2024-03-23T04:25:20;9.50;7.30
26164;DHT22;13914;48.178;11.716;2024-03-23T04:27:46;9.40;7.30
26164;DHT22;13914;48.178;11.716;2024-03-23T04:30:12;9.50;7.40
26164;DHT22;13914;48.178;11.716;2024-03-23T04:32:38;9.40;7.30
26164;DHT22;13914;48.178;11.716;2024-03-23T04:35:04;9.40;7.40
26164;DHT22;13914;48.178;11.716;2024-03-23T04:37:35;9.40;7.40
26164;DHT22;13914;48.178;11.716;2024-03-23T04:40:01;9.40;7.90
26164;DHT22;13914;48.178;11.716;2024-03-23T04:42:28;9.30;7.40
26164;DHT22;13914;48.178;11.716;2024-03-23T04:44:53;9.40;7.40
26164;DHT22;13914;48.178;11.716;2024-03-23T04:47:19;9.30;7.40
26164;DHT22;13914;48.178;11.716;2024-03-23T04:49:45;9.30;7.40
26164;DHT22;13914;48.178;11.716;2024-03-23T04:52:11;9.30;7.40
26164;DHT22;13914;48.178;11.716;2024-03-23T04:54:37;9.30;7.40
26164;DHT22;13914;48.178;11.716;2024-03-23T04:57:03;9.30;7.40
26164;DHT22;13914;48.178;11.716;2024-03-23T04:59:29;9.30;7.40
26164;DHT22;13914;48.178;11.716;2024-03-23T05:01:54;9.30;7.40
26164;DHT22;13914;48.178;11.716;2024-03-23T05:04:20;9.20;7.40
26164;DHT22;13914;48.178;11.716;2024-03-23T05:06:45;9.20;7.40
26164;DHT22;13914;48.178;11.716;2024-03-23T05:09:11;9.20;7.50
26164;DHT22;13914;48.178;11.716;2024-03-23T05:11:37;9.20;7.50
26164;DHT22;13914;48.178;11.716;2024-03-23T05:14:03;9.20;7.40
26164;DHT22;13914;48.178;11.716;2024-03-23T05:16:29;9.20;7.50
26164;DHT22;13914;48.178;11.716;2024-03-23T05:18:55;9.20;7.50
26164;DHT22;13914;48.178;11.716;2024-03-23T05:21:20;9.10;7.50
26164;DHT22;13914;48.178;11.716;2024-03-23T05:23:46;9.10;7.50
26164;DHT22;13914;48.178;11.716;2024-03-23T05:26:13;9.20;7.50
26164;DHT22;13914;48.178;11.716;2024-03-23T05:28:39;9.10;7.50
26164;DHT22;13914;48.178;11.716;2024-03-23T05:31:04;9.10;7.50
26164;DHT22;13914;48.178;11.716;2024-03-23T05:33:30;9.10;7.40
26164;DHT22;13914;48.178;11.716;2024-03-23T05:35:56;9.10;7.50
26164;DHT22;13914;48.178;11.716;2024-03-23T05:38:22;9.10;7.50
26164;DHT22;13914;48.178;11.716;2024-03-23T05:40:54;9.10;7.50
26164;DHT22;13914;48.178;11.716;2024-03-23T05:43:21;9.10;7.50
26164;DHT22;13914;48.178;11.716;2024-03-23T05:45:56;9.10;7.50
26164;DHT22;13914;48.178;11.716;2024-03-23T05:48:23;9.10;7.50
26164;DHT22;13914;48.178;11.716;2024-03-23T05:50:49;9.00;7.40
26164;DHT22;13914;48.178;11.716;2024-03-23T05:53:15;9.10;7.50
26164;DHT22;13914;48.178;11.716;2024-03-23T05:55:41;9.10;7.50
26164;DHT22;13914;48.178;11.716;2024-03-23T05:58:07;9.00;7.50
26164;DHT22;13914;48.178;11.716;2024-03-23T06:00:33;9.00;7.50
26164;DHT22;13914;48.178;11.716;2024-03-23T06:02:58;9.10;7.50
26164;DHT22;13914;48.178;11.716;2024-03-23T06:05:24;9.10;7.60
26164;DHT22;13914;48.178;11.716;2024-03-23T06:07:50;9.00;7.60
26164;DHT22;13914;48.178;11.716;2024-03-23T06:10:15;9.10;7.60
26164;DHT22;13914;48.178;11.716;2024-03-23T06:12:41;9.10;7.60
26164;DHT22;13914;48.178;11.716;2024-03-23T06:15:07;9.10;7.60
26164;DHT22;13914;48.178;11.716;2024-03-23T06:17:38;9.10;7.60
26164;DHT22;13914;48.178;11.716;2024-03-23T06:20:05;9.10;7.60
26164;DHT22;13914;48.178;11.716;2024-03-23T06:22:33;9.10;7.60
26164;DHT22;13914;48.178;11.716;2024-03-23T06:24:59;9.10;7.60
26164;DHT22;13914;48.178;11.716;2024-03-23T06:27:25;9.10;7.70
26164;DHT22;13914;48.178;11.716;2024-03-23T06:29:51;9.20;7.80
26164;DHT22;13914;48.178;11.716;2024-03-23T06:32:16;9.10;7.70
26164;DHT22;13914;48.178;11.716;2024-03-23T06:34:42;9.20;7.90
26164;DHT22;13914;48.178;11.716;2024-03-23T06:37:08;9.20;8.50
26164;DHT22;13914;48.178;11.716;2024-03-23T06:39:38;9.20;7.90
26164;DHT22;13914;48.178;11.716;2024-03-23T06:42:04;9.30;8.10
26164;DHT22;13914;48.178;11.716;2024-03-23T06:44:32;9.30;8.20
26164;DHT22;13914;48.178;11.716;2024-03-23T06:46:57;9.40;8.20
26164;DHT22;13914;48.178;11.716;2024-03-23T06:49:23;9.40;8.30
26164;DHT22;13914;48.178;11.716;2024-03-23T06:51:49;9.50;8.40
26164;DHT22;13914;48.178;11.716;2024-03-23T06:54:16;9.50;8.40
26164;DHT22;13914;48.178;11.716;2024-03-23T06:56:43;9.60;8.50
26164;DHT22;13914;48.178;11.716;2024-03-23T06:59:09;9.70;8.50
26164;DHT22;13914;48.178;11.716;2024-03-23T07:01:35;9.80;8.60
26164;DHT22;13914;48.178;11.716;2024-03-23T07:04:00;9.90;8.70
26164;DHT22;13914;48.178;11.716;2024-03-23T07:06:26;10.00;9.10
26164;DHT22;13914;48.178;11.716;2024-03-23T07:08:52;10.00;9.50
26164;DHT22;13914;48.178;11.716;2024-03-23T07:11:19;10.00;10.10
26164;DHT22;13914;48.178;11.716;2024-03-23T07:13:45;10.20;10.60
26164;DHT22;13914;48.178;11.716;2024-03-23T07:16:12;10.30;11.00
26164;DHT22;13914;48.178;11.716;2024-03-23T07:18:38;10.50;11.30
26164;DHT22;13914;48.178;11.716;2024-03-23T07:21:05;10.60;11.40
26164;DHT22;13914;48.178;11.716;2024-03-23T07:23:32;10.70;11.30
26164;DHT22;13914;48.178;11.716;2024-03-23T07:25:58;10.80;11.20
26164;DHT22;13914;48.178;11.716;2024-03-23T07:28:25;10.90;11.10
26164;DHT22;13914;48.178;11.716;2024-03-23T07:31:03;11.00;11.10
26164;DHT22;13914;48.178;11.716;2024-03-23T07:33:36;11.10;11.00
26164;DHT22;13914;48.178;11.716;2024-03-23T07:36:06;11.20;10.60
26164;DHT22;13914;48.178;11.716;2024-03-23T07:38:32;11.30;10.50
26164;DHT22;13914;48.178;11.716;2024-03-23T07:41:11;11.40;10.30
26164;DHT22;13914;48.178;11.716;2024-03-23T07:43:37;11.50;10.10
26164;DHT22;13914;48.178;11.716;2024-03-23T07:46:04;11.60;9.90
26164;DHT22;13914;48.178;11.716;2024-03-23T07:48:30;11.70;9.90
26164;DHT22;13914;48.178;11.716;2024-03-23T07:50:58;11.70;9.50
26164;DHT22;13914;48.178;11.716;2024-03-23T07:53:28;11.70;9.50
26164;DHT22;13914;48.178;11.716;2024-03-23T07:55:58;11.80;9.50
26164;DHT22;13914;48.178;11.716;2024-03-23T07:58:25;11.90;9.70
26164;DHT22;13914;48.178;11.716;2024-03-23T08:00:52;11.90;9.90
26164;DHT22;13914;48.178;11.716;2024-03-23T08:03:18;12.00;10.00
26164;DHT22;13914;48.178;11.716;2024-03-23T08:05:44;12.00;10.10
26164;DHT22;13914;48.178;11.716;2024-03-23T08:08:10;12.00;10.10
26164;DHT22;13914;48.178;11.716;2024-03-23T08:10:36;12.10;10.40
26164;DHT22;13914;48.178;11.716;2024-03-23T08:13:03;12.00;10.40
26164;DHT22;13914;48.178;11.716;2024-03-23T08:15:32;12.10;10.30
26164;DHT22;13914;48.178;11.716;2024-03-23T08:18:00;12.10;10.50
26164;DHT22;13914;48.178;11.716;2024-03-23T08:20:26;12.10;10.60
26164;DHT22;13914;48.178;11.716;2024-03-23T08:22:52;12.20;10.50
26164;DHT22;13914;48.178;11.716;2024-03-23T08:25:18;12.20;10.50
26164;DHT22;13914;48.178;11.716;2024-03-23T08:27:44;12.20;10.80
26164;DHT22;13914;48.178;11.716;2024-03-23T08:30:10;12.10;10.90
26164;DHT22;13914;48.178;11.716;2024-03-23T08:32:36;12.20;10.90
26164;DHT22;13914;48.178;11.716;2024-03-23T08:35:02;12.20;10.90
26164;DHT22;13914;48.178;11.716;2024-03-23T08:37:28;12.10;11.10
26164;DHT22;13914;48.178;11.716;2024-03-23T08:39:53;12.10;10.90
26164;DHT22;13914;48.178;11.716;2024-03-23T08:42:19;12.10;11.10
26164;DHT22;13914;48.178;11.716;2024-03-23T08:44:46;12.10;10.80
26164;DHT22;13914;48.178;11.716;2024-03-23T08:47:17;12.00;10.70
26164;DHT22;13914;48.178;11.716;2024-03-23T08:49:44;12.00;10.70
26164;DHT22;13914;48.178;11.716;2024-03-23T08:52:09;11.90;10.40
26164;DHT22;13914;48.178;11.716;2024-03-23T08:54:35;11.90;10.20
26164;DHT22;13914;48.178;11.716;2024-03-23T08:57:01;11.90;10.30
26164;DHT22;13914;48.178;11.716;2024-03-23T08:59:30;11.80;10.40
26164;DHT22;13914;48.178;11.716;2024-03-23T09:01:55;11.80;10.40
26164;DHT22;13914;48.178;11.716;2024-03-23T09:04:21;11.80;10.40
26164;DHT22;13914;48.178;11.716;2024-03-23T09:06:47;11.80;10.40
26164;DHT22;13914;48.178;11.716;2024-03-23T09:09:12;11.70;10.20
26164;DHT22;13914;48.178;11.716;2024-03-23T09:11:38;11.70;10.20
26164;DHT22;13914;48.178;11.716;2024-03-23T09:14:04;11.70;10.20
26164;DHT22;13914;48.178;11.716;2024-03-23T09:16:29;11.60;10.20
26164;DHT22;13914;48.178;11.716;2024-03-23T09:18:55;11.60;9.90
26164;DHT22;13914;48.178;11.716;2024-03-23T09:21:21;11.60;10.20
26164;DHT22;13914;48.178;11.716;2024-03-23T09:23:46;11.60;10.00
26164;DHT22;13914;48.178;11.716;2024-03-23T09:26:12;11.50;10.00
26164;DHT22;13914;48.178;11.716;2024-03-23T09:28:38;11.50;9.90
26164;DHT22;13914;48.178;11.716;2024-03-23T09:33:30;11.40;10.40
26164;DHT22;13914;48.178;11.716;2024-03-23T09:35:55;11.40;10.20
26164;DHT22;13914;48.178;11.716;2024-03-23T09:38:22;11.40;10.60
26164;DHT22;13914;48.178;11.716;2024-03-23T09:40:48;11.30;10.20
26164;DHT22;13914;48.178;11.716;2024-03-23T09:43:15;11.20;10.30
26164;DHT22;13914;48.178;11.716;2024-03-23T09:45:41;11.20;10.30
26164;DHT22;13914;48.178;11.716;2024-03-23T09:48:10;11.10;10.30
26164;DHT22;13914;48.178;11.716;2024-03-23T09:50:39;11.00;10.30
26164;DHT22;13914;48.178;11.716;2024-03-23T09:53:09;11.00;10.80
26164;DHT22;13914;48.178;11.716;2024-03-23T09:55:37;11.00;10.00
26164;DHT22;13914;48.178;11.716;2024-03-23T09:58:03;11.00;10.00
26164;DHT22;13914;48.178;11.716;2024-03-23T10:00:30;10.90;10.00
26164;DHT22;13914;48.178;11.716;2024-03-23T10:03:00;10.90;9.90
26164;DHT22;13914;48.178;11.716;2024-03-23T10:05:29;10.80;10.00
26164;DHT22;13914;48.178;11.716;2024-03-23T10:10:39;10.80;10.00
26164;DHT22;13914;48.178;11.716;2024-03-23T10:13:05;10.80;10.00
26164;DHT22;13914;48.178;11.716;2024-03-23T10:15:33;10.70;10.00
26164;DHT22;13914;48.178;11.716;2024-03-23T10:18:06;10.70;10.00
26164;DHT22;13914;48.178;11.716;2024-03-23T10:20:43;10.60;10.00
26164;DHT22;13914;48.178;11.716;2024-03-23T10:23:15;10.60;9.90
26164;DHT22;13914;48.178;11.716;2024-03-23T10:25:41;10.50;9.80
26164;DHT22;13914;48.178;11.716;2024-03-23T10:28:07;10.50;10.00
26164;DHT22;13914;48.178;11.716;2024-03-23T10:30:32;10.50;9.90
26164;DHT22;13914;48.178;11.716;2024-03-23T10:33:08;10.50;10.00
26164;DHT22;13914;48.178;11.716;2024-03-23T10:35:36;10.50;10.00
26164;DHT22;13914;48.178;11.716;2024-03-23T10:38:04;10.40;9.90
26164;DHT22;13914;48.178;11.716;2024-03-23T10:40:30;10.40;9.90
26164;DHT22;13914;48.178;11.716;2024-03-23T10:42:57;10.40;9.90
26164;DHT22;13914;48.178;11.716;2024-03-23T10:45:23;10.30;9.80
26164;DHT22;13914;48.178;11.716;2024-03-23T10:47:49;10.40;9.80
26164;DHT22;13914;48.178;11.716;2024-03-23T10:50:14;10.40;9.90
26164;DHT22;13914;48.178;11.716;2024-03-23T10:52:41;10.30;9.90
26164;DHT22;13914;48.178;11.716;2024-03-23T10:55:11;10.30;9.80
26164;DHT22;13914;48.178;11.716;2024-03-23T10:57:43;10.30;10.00
26164;DHT22;13914;48.178;11.716;2024-03-23T11:00:11;10.30;10.00
26164;DHT22;13914;48.178;11.716;2024-03-23T11:02:38;10.30;10.10
26164;DHT22;13914;48.178;11.716;2024-03-23T11:07:51;10.20;10.30
26164;DHT22;13914;48.178;11.716;2024-03-23T11:10:26;10.20;10.50
26164;DHT22;13914;48.178;11.716;2024-03-23T11:12:54;10.20;10.30
26164;DHT22;13914;48.178;11.716;2024-03-23T11:15:20;10.10;10.40
26164;DHT22;13914;48.178;11.716;2024-03-23T11:18:03;10.10;10.30
26164;DHT22;13914;48.178;11.716;2024-03-23T11:20:35;10.00;10.20
26164;DHT22;13914;48.178;11.716;2024-03-23T11:23:01;10.00;10.40
26164;DHT22;13914;48.178;11.716;2024-03-23T11:25:27;10.00;10.40
26164;DHT22;13914;48.178;11.716;2024-03-23T11:27:54;9.90;10.30
26164;DHT22;13914;48.178;11.716;2024-03-23T11:30:27;9.90;10.30
26164;DHT22;13914;48.178;11.716;2024-03-23T11:32:56;9.90;10.30
26164;DHT22;13914;48.178;11.716;2024-03-23T11:35:35;9.90;10.20
26164;DHT22;13914;48.178;11.716;2024-03-23T11:40:36;9.90;10.20
26164;DHT22;13914;48.178;11.716;2024-03-23T11:43:04;9.90;10.10
26164;DHT22;13914;48.178;11.716;2024-03-23T11:45:37;9.90;10.20
26164;DHT22;13914;48.178;11.716;2024-03-23T11:48:20;9.90;10.10
26164;DHT22;13914;48.178;11.716;2024-03-23T11:50:47;9.80;10.10
26164;DHT22;13914;48.178;11.716;2024-03-23T11:53:15;9.90;10.20
26164;DHT22;13914;48.178;11.716;2024-03-23T11:55:43;9.90;10.20
26164;DHT22;13914;48.178;11.716;2024-03-23T11:58:16;9.90;10.00
26164;DHT22;13914;48.178;11.716;2024-03-23T12:00:43;9.80;9.90
26164;DHT22;13914;48.178;11.716;2024-03-23T12:03:17;9.80;9.90
26164;DHT22;13914;48.178;11.716;2024-03-23T12:05:47;9.80;9.60
26164;DHT22;13914;48.178;11.716;2024-03-23T12:08:32;9.80;9.60
26164;DHT22;13914;48.178;11.716;2024-03-23T12:13:31;9.80;9.40
26164;DHT22;13914;48.178;11.716;2024-03-23T12:16:08;9.80;9.40
26164;DHT22;13914;48.178;11.716;2024-03-23T12:18:35;9.80;9.40
26164;DHT22;13914;48.178;11.716;2024-03-23T12:21:01;9.80;9.40
26164;DHT22;13914;48.178;11.716;2024-03-23T12:23:26;9.80;9.40
26164;DHT22;13914;48.178;11.716;2024-03-23T12:25:52;9.80;9.30
26164;DHT22;13914;48.178;11.716;2024-03-23T12:28:18;9.80;9.40
26164;DHT22;13914;48.178;11.716;2024-03-23T12:30:44;9.80;9.30
26164;DHT22;13914;48.178;11.716;2024-03-23T12:33:09;9.80;9.20
26164;DHT22;13914;48.178;11.716;2024-03-23T12:35:35;9.80;9.00
26164;DHT22;13914;48.178;11.716;2024-03-23T12:38:01;9.80;8.90
26164;DHT22;13914;48.178;11.716;2024-03-23T12:40:26;9.80;9.10
26164;DHT22;13914;48.178;11.716;2024-03-23T12:42:53;9.80;8.60
26164;DHT22;13914;48.178;11.716;2024-03-23T12:45:19;9.80;8.00
26164;DHT22;13914;48.178;11.716;2024-03-23T12:47:45;9.80;8.20
26164;DHT22;13914;48.178;11.716;2024-03-23T12:50:11;9.80;7.30
26164;DHT22;13914;48.178;11.716;2024-03-23T12:52:37;9.80;7.70
26164;DHT22;13914;48.178;11.716;2024-03-23T12:55:03;9.80;7.20
26164;DHT22;13914;48.178;11.716;2024-03-23T12:57:31;9.80;6.70
26164;DHT22;13914;48.178;11.716;2024-03-23T12:59:57;9.80;7.20
26164;DHT22;13914;48.178;11.716;2024-03-23T13:02:23;9.80;7.30
26164;DHT22;13914;48.178;11.716;2024-03-23T13:04:52;9.80;7.10
26164;DHT22;13914;48.178;11.716;2024-03-23T13:07:19;9.90;7.30
26164;DHT22;13914;48.178;11.716;2024-03-23T13:09:45;9.90;7.10
26164;DHT22;13914;48.178;11.716;2024-03-23T13:12:11;9.90;6.80
26164;DHT22;13914;48.178;11.716;2024-03-23T13:14:39;10.00;7.10
26164;DHT22;13914;48.178;11.716;2024-03-23T13:17:05;10.00;7.30
26164;DHT22;13914;48.178;11.716;2024-03-23T13:19:32;10.00;7.40
26164;DHT22;13914;48.178;11.716;2024-03-23T13:21:58;10.00;7.50
26164;DHT22;13914;48.178;11.716;2024-03-23T13:24:25;10.10;7.70
26164;DHT22;13914;48.178;11.716;2024-03-23T13:26:51;10.10;7.60
26164;DHT22;13914;48.178;11.716;2024-03-23T13:29:18;10.10;7.50
26164;DHT22;13914;48.178;11.716;2024-03-23T13:31:44;10.10;6.60
26164;DHT22;13914;48.178;11.716;2024-03-23T13:34:11;10.10;7.20
26164;DHT22;13914;48.178;11.716;2024-03-23T13:36:36;10.20;7.10
26164;DHT22;13914;48.178;11.716;2024-03-23T13:39:03;10.20;7.30
26164;DHT22;13914;48.178;11.716;2024-03-23T13:41:39;10.10;7.30
26164;DHT22;13914;48.178;11.716;2024-03-23T13:44:09;10.20;7.30
26164;DHT22;13914;48.178;11.716;2024-03-23T13:46:41;10.20;7.20
26164;DHT22;13914;48.178;11.716;2024-03-23T13:49:24;10.20;6.90
26164;DHT22;13914;48.178;11.716;2024-03-23T13:51:51;10.30;7.10
26164;DHT22;13914;48.178;11.716;2024-03-23T13:54:16;10.30;7.10
26164;DHT22;13914;48.178;11.716;2024-03-23T13:56:42;10.30;7.00
26164;DHT22;13914;48.178;11.716;2024-03-23T13:59:08;10.30;6.90
26164;DHT22;13914;48.178;11.716;2024-03-23T14:01:34;10.30;6.50
26164;DHT22;13914;48.178;11.716;2024-03-23T14:03:59;10.20;6.10
26164;DHT22;13914;48.178;11.716;2024-03-23T14:06:25;10.20;6.30
26164;DHT22;13914;48.178;11.716;2024-03-23T14:08:51;10.10;6.60
26164;DHT22;13914;48.178;11.716;2024-03-23T14:11:17;10.10;7.00
26164;DHT22;13914;48.178;11.716;2024-03-23T14:13:43;10.10;7.00
26164;DHT22;13914;48.178;11.716;2024-03-23T14:16:09;10.10;7.10
26164;DHT22;13914;48.178;11.716;2024-03-23T14:18:35;10.00;7.10
26164;DHT22;13914;48.178;11.716;2024-03-23T14:21:01;10.10;7.20
26164;DHT22;13914;48.178;11.716;2024-03-23T14:23:27;10.10;7.30
26164;DHT22;13914;48.178;11.716;2024-03-23T14:25:55;10.00;7.30
26164;DHT22;13914;48.178;11.716;2024-03-23T14:28:24;10.00;7.30
26164;DHT22;13914;48.178;11.716;2024-03-23T14:30:50;10.00;7.30
26164;DHT22;13914;48.178;11.716;2024-03-23T14:33:16;9.90;7.40
26164;DHT22;13914;48.178;11.716;2024-03-23T14:35:43;9.90;7.40
26164;DHT22;13914;48.178;11.716;2024-03-23T14:38:09;9.90;7.40
26164;DHT22;13914;48.178;11.716;2024-03-23T14:40:35;9.90;7.50
26164;DHT22;13914;48.178;11.716;2024-03-23T14:43:01;9.90;7.60
26164;DHT22;13914;48.178;11.716;2024-03-23T14:45:27;9.80;7.50
26164;DHT22;13914;48.178;11.716;2024-03-23T14:47:53;9.80;7.60
26164;DHT22;13914;48.178;11.716;2024-03-23T14:50:19;9.90;7.60
26164;DHT22;13914;48.178;11.716;2024-03-23T14:52:46;9.70;7.60
26164;DHT22;13914;48.178;11.716;2024-03-23T14:55:12;9.70;7.60
26164;DHT22;13914;48.178;11.716;2024-03-23T14:57:38;9.70;7.60
26164;DHT22;13914;48.178;11.716;2024-03-23T15:00:08;9.70;7.40
26164;DHT22;13914;48.178;11.716;2024-03-23T15:02:39;9.60;7.20
26164;DHT22;13914;48.178;11.716;2024-03-23T15:05:05;9.60;7.00
26164;DHT22;13914;48.178;11.716;2024-03-23T15:07:38;9.50;6.80
26164;DHT22;13914;48.178;11.716;2024-03-23T15:10:04;9.50;6.80
26164;DHT22;13914;48.178;11.716;2024-03-23T15:12:31;9.50;6.90
26164;DHT22;13914;48.178;11.716;2024-03-23T15:14:58;9.40;7.40
26164;DHT22;13914;48.178;11.716;2024-03-23T15:17:25;9.40;6.80
26164;DHT22;13914;48.178;11.716;2024-03-23T15:19:51;9.40;6.70
26164;DHT22;13914;48.178;11.716;2024-03-23T15:22:18;9.30;6.60
26164;DHT22;13914;48.178;11.716;2024-03-23T15:24:44;9.30;6.50
26164;DHT22;13914;48.178;11.716;2024-03-23T15:27:09;9.30;6.40
26164;DHT22;13914;48.178;11.716;2024-03-23T15:29:35;9.30;6.50
26164;DHT22;13914;48.178;11.716;2024-03-23T15:32:02;9.20;6.50
26164;DHT22;13914;48.178;11.716;2024-03-23T15:34:28;9.20;6.50
26164;DHT22;13914;48.178;11.716;2024-03-23T15:36:54;9.20;6.60
26164;DHT22;13914;48.178;11.716;2024-03-23T15:39:20;9.20;6.70
26164;DHT22;13914;48.178;11.716;2024-03-23T15:41:47;9.10;6.80
26164;DHT22;13914;48.178;11.716;2024-03-23T15:44:13;9.10;6.80
26164;DHT22;13914;48.178;11.716;2024-03-23T15:46:39;9.10;6.90
26164;DHT22;13914;48.178;11.716;2024-03-23T15:49:05;9.00;6.90
26164;DHT22;13914;48.178;11.716;2024-03-23T15:51:31;9.00;7.10
26164;DHT22;13914;48.178;11.716;2024-03-23T15:54:00;9.00;7.10
26164;DHT22;13914;48.178;11.716;2024-03-23T15:56:25;9.00;7.10
26164;DHT22;13914;48.178;11.716;2024-03-23T15:58:51;9.00;7.20
26164;DHT22;13914;48.178;11.716;2024-03-23T16:01:17;9.00;7.30
26164;DHT22;13914;48.178;11.716;2024-03-23T16:03:43;9.00;7.30
26164;DHT22;13914;48.178;11.716;2024-03-23T16:06:09;8.90;7.30
26164;DHT22;13914;48.178;11.716;2024-03-23T16:08:35;9.10;7.50
26164;DHT22;13914;48.178;11.716;2024-03-23T16:11:02;8.90;7.50
26164;DHT22;13914;48.178;11.716;2024-03-23T16:13:28;8.90;7.60
26164;DHT22;13914;48.178;11.716;2024-03-23T16:15:55;8.90;7.70
26164;DHT22;13914;48.178;11.716;2024-03-23T16:18:24;9.00;7.70
26164;DHT22;13914;48.178;11.716;2024-03-23T16:20:53;8.90;7.80
26164;DHT22;13914;48.178;11.716;2024-03-23T16:23:19;8.90;7.80
26164;DHT22;13914;48.178;11.716;2024-03-23T16:25:49;8.90;7.80
26164;DHT22;13914;48.178;11.716;2024-03-23T16:28:31;9.00;7.90
26164;DHT22;13914;48.178;11.716;2024-03-23T16:33:24;8.80;7.90
26164;DHT22;13914;48.178;11.716;2024-03-23T16:38:34;8.90;7.90
26164;DHT22;13914;48.178;11.716;2024-03-23T16:41:02;8.90;7.90
26164;DHT22;13914;48.178;11.716;2024-03-23T16:43:35;8.90;7.90